createdAt,value
2018-05-29T00:01:03.142Z,12.86
2018-05-29T00:03:31.487Z,12.60
2018-05-29T00:05:59.831Z,13.78
2018-05-29T00:08:28.157Z,12.92
2018-05-29T00:10:56.490Z,13.58
2018-05-29T00:13:24.820Z,13.50
2018-05-29T00:15:53.159Z,13.06
2018-05-29T00:18:21.477Z,13.90
2018-05-29T00:20:49.817Z,13.56
2018-05-29T00:23:18.134Z,13.52
2018-05-29T00:25:46.473Z,13.06
2018-05-29T00:28:14.795Z,13.70
2018-05-29T00:30:43.138Z,12.94
2018-05-29T00:33:11.459Z,13.23
2018-05-29T00:35:39.799Z,13.46
2018-05-29T00:38:08.113Z,12.95
2018-05-29T00:40:36.468Z,13.46
2018-05-29T00:43:04.790Z,12.96
2018-05-29T00:45:33.112Z,13.58
2018-05-29T00:48:01.453Z,12.72
2018-05-29T00:50:29.783Z,13.74
2018-05-29T00:52:58.135Z,12.74
2018-05-29T00:55:37.110Z,12.78
2018-05-29T00:58:05.456Z,12.46
2018-05-29T01:00:33.770Z,13.08
2018-05-29T01:03:02.106Z,12.56
2018-05-29T01:05:30.426Z,12.27
2018-05-29T01:07:58.786Z,14.03
2018-05-29T01:10:27.121Z,13.86
2018-05-29T01:12:54.701Z,12.80
2018-05-29T01:15:25.922Z,13.08
2018-05-29T01:17:54.274Z,13.42
2018-05-29T01:20:22.590Z,14.08
2018-05-29T01:22:50.905Z,13.24
2018-05-29T01:25:19.244Z,12.84
2018-05-29T01:27:47.559Z,14.62
2018-05-29T01:30:15.893Z,13.86
2018-05-29T01:32:43.446Z,14.12
2018-05-29T01:35:11.786Z,13.82
2018-05-29T01:37:40.104Z,13.46
2018-05-29T01:40:08.448Z,14.68
2018-05-29T01:42:36.773Z,13.26
2018-05-29T01:45:05.109Z,13.88
2018-05-29T01:47:33.460Z,13.08
2018-05-29T01:50:01.801Z,14.14
2018-05-29T01:52:30.121Z,13.38
2018-05-29T01:54:58.457Z,13.32
2018-05-29T01:57:26.778Z,13.90
2018-05-29T01:59:55.127Z,13.14
2018-05-29T02:02:23.437Z,14.14
2018-05-29T02:04:51.778Z,13.32
2018-05-29T02:07:20.104Z,14.62
2018-05-29T02:09:48.416Z,13.94
2018-05-29T02:12:16.756Z,15.26
2018-05-29T02:14:44.310Z,13.84
2018-05-29T02:17:12.641Z,14.04
2018-05-29T02:19:40.958Z,13.94
2018-05-29T02:22:08.526Z,13.92
2018-05-29T02:24:36.089Z,15.02
2018-05-29T02:27:04.436Z,14.58
2018-05-29T02:29:32.758Z,15.04
2018-05-29T02:32:01.095Z,13.88
2018-05-29T02:34:29.411Z,16.26
2018-05-29T02:36:57.748Z,14.94
2018-05-29T02:39:26.064Z,14.36
2018-05-29T02:41:54.409Z,15.82
2018-05-29T02:44:22.735Z,15.68
2018-05-29T02:46:51.083Z,15.80
2018-05-29T02:49:19.402Z,16.52
2018-05-29T02:51:47.721Z,15.42
2018-05-29T02:54:16.087Z,15.96
2018-05-29T02:56:44.414Z,15.77
2018-05-29T02:59:12.748Z,15.72
2018-05-29T03:01:41.087Z,15.54
2018-05-29T03:04:09.430Z,16.08
2018-05-29T03:06:37.745Z,17.18
2018-05-29T03:09:06.092Z,15.52
2018-05-29T03:11:34.410Z,16.08
2018-05-29T03:14:02.753Z,15.24
2018-05-29T03:16:31.083Z,15.72
2018-05-29T03:18:59.427Z,15.14
2018-05-29T03:21:27.742Z,15.66
2018-05-29T03:23:56.089Z,15.94
2018-05-29T03:26:24.415Z,16.02
2018-05-29T03:28:52.756Z,15.94
2018-05-29T03:31:21.082Z,16.22
2018-05-29T03:33:49.401Z,17.02
2018-05-29T03:36:17.753Z,15.14
2018-05-29T03:38:46.075Z,16.40
2018-05-29T03:41:14.414Z,15.20
2018-05-29T03:43:42.737Z,15.68
2018-05-29T03:46:11.085Z,15.70
2018-05-29T03:48:39.397Z,16.34
2018-05-29T03:51:07.735Z,15.34
2018-05-29T03:53:36.053Z,16.64
2018-05-29T03:56:04.389Z,16.26
2018-05-29T03:58:32.710Z,16.76
2018-05-29T04:01:01.045Z,16.30
2018-05-29T04:03:29.362Z,15.82
2018-05-29T04:05:57.701Z,17.24
2018-05-29T04:08:26.025Z,15.73
2018-05-29T04:10:54.369Z,14.67
2018-05-29T04:13:22.691Z,16.24
2018-05-29T04:15:51.088Z,14.40
2018-05-29T04:18:19.371Z,15.60
2018-05-29T04:20:47.689Z,15.32
2018-05-29T04:23:16.031Z,14.48
2018-05-29T04:25:44.356Z,13.82
2018-05-29T04:28:12.703Z,14.40
2018-05-29T04:30:41.024Z,15.74
2018-05-29T04:33:09.369Z,15.44
2018-05-29T04:35:37.689Z,15.22
2018-05-29T04:38:06.026Z,16.00
2018-05-29T04:40:34.353Z,14.38
2018-05-29T04:43:02.716Z,13.70
2018-05-29T04:45:31.047Z,14.22
2018-05-29T04:47:59.406Z,13.04
2018-05-29T04:50:27.728Z,13.84
2018-05-29T04:52:55.319Z,12.22
2018-05-29T04:55:23.638Z,13.40
2018-05-29T04:57:51.959Z,14.50
2018-05-29T05:00:20.303Z,14.16
2018-05-29T05:02:48.626Z,13.06
2018-05-29T05:05:16.966Z,13.10
2018-05-29T05:07:45.305Z,12.92
2018-05-29T05:10:13.645Z,13.38
2018-05-29T05:12:41.962Z,13.62
2018-05-29T05:15:10.305Z,14.30
2018-05-29T05:17:38.634Z,13.86
2018-05-29T05:20:06.977Z,13.90
2018-05-29T05:22:35.303Z,14.54
2018-05-29T05:25:03.637Z,14.62
2018-05-29T05:27:31.958Z,15.32
2018-05-29T05:30:00.323Z,15.02
2018-05-29T05:32:28.927Z,14.66
2018-05-29T05:34:56.510Z,14.96
2018-05-29T05:37:24.835Z,15.02
2018-05-29T05:39:53.172Z,14.84
2018-05-29T05:42:21.486Z,15.04
2018-05-29T05:44:49.834Z,15.22
2018-05-29T05:47:18.151Z,15.30
2018-05-29T05:49:46.493Z,15.24
2018-05-29T05:52:14.815Z,16.94
2018-05-29T05:54:43.157Z,15.52
2018-05-29T05:57:11.466Z,15.64
2018-05-29T05:59:39.806Z,15.18
2018-05-29T06:02:08.145Z,15.30
2018-05-29T06:04:36.459Z,16.32
2018-05-29T06:07:04.794Z,15.42
2018-05-29T06:09:33.106Z,16.44
2018-05-29T06:12:01.443Z,14.74
2018-05-29T06:14:29.763Z,15.46
2018-05-29T06:16:58.105Z,15.44
2018-05-29T06:19:26.431Z,15.40
2018-05-29T06:21:54.803Z,15.72
2018-05-29T06:24:23.147Z,16.72
2018-05-29T06:26:51.491Z,15.92
2018-05-29T06:29:19.805Z,15.08
2018-05-29T06:31:48.143Z,15.72
2018-05-29T06:34:15.691Z,15.40
2018-05-29T06:36:44.039Z,15.88
2018-05-29T06:39:12.350Z,16.90
2018-05-29T06:41:40.687Z,15.22
2018-05-29T06:44:09.013Z,16.40
2018-05-29T06:46:37.358Z,15.30
2018-05-29T06:49:05.690Z,16.58
2018-05-29T06:51:34.029Z,15.92
2018-05-29T06:54:02.341Z,15.54
2018-05-29T06:56:30.680Z,15.92
2018-05-29T06:58:58.997Z,16.58
2018-05-29T07:01:27.334Z,17.05
2018-05-29T07:03:55.653Z,16.00
2018-05-29T07:06:24.031Z,16.16
2018-05-29T07:08:52.367Z,15.66
2018-05-29T07:11:20.702Z,18.08
2018-05-29T07:13:49.024Z,15.82
2018-05-29T07:16:17.362Z,16.10
2018-05-29T07:18:45.676Z,17.42
2018-05-29T07:21:14.015Z,16.12
2018-05-29T07:23:42.331Z,16.82
2018-05-29T07:26:10.675Z,17.22
2018-05-29T07:28:38.993Z,14.98
2018-05-29T07:31:07.328Z,17.12
2018-05-29T07:33:35.650Z,17.30
2018-05-29T07:36:04.001Z,15.94
2018-05-29T07:38:32.329Z,15.98
2018-05-29T07:41:00.642Z,16.10
2018-05-29T07:43:28.983Z,17.42
2018-05-29T07:45:57.309Z,16.46
2018-05-29T07:48:25.668Z,16.66
2018-05-29T07:50:53.997Z,16.64
2018-05-29T07:53:22.335Z,16.62
2018-05-29T07:55:50.694Z,18.44
2018-05-29T07:58:19.031Z,17.98
2018-05-29T08:00:47.355Z,17.32
2018-05-29T08:03:15.693Z,16.56
2018-05-29T08:05:44.010Z,16.58
2018-05-29T08:08:12.350Z,17.40
2018-05-29T08:10:40.714Z,16.38
2018-05-29T08:13:09.016Z,17.40
2018-05-29T08:15:37.343Z,17.12
2018-05-29T08:18:05.680Z,17.00
2018-05-29T08:20:33.997Z,16.04
2018-05-29T08:23:02.340Z,17.06
2018-05-29T08:25:30.654Z,17.44
2018-05-29T08:27:59.002Z,16.90
2018-05-29T08:30:27.325Z,16.10
2018-05-29T08:32:55.667Z,17.02
2018-05-29T08:35:23.994Z,15.82
2018-05-29T08:37:52.350Z,15.16
2018-05-29T08:40:20.670Z,15.66
2018-05-29T08:42:49.014Z,16.34
2018-05-29T08:45:17.392Z,16.66
2018-05-29T08:47:45.766Z,15.60
2018-05-29T08:50:14.077Z,15.12
2018-05-29T08:52:42.424Z,14.68
2018-05-29T08:55:10.734Z,15.78
2018-05-29T08:57:39.081Z,14.78
2018-05-29T09:00:07.393Z,14.60
2018-05-29T09:02:35.738Z,15.98
2018-05-29T09:05:04.065Z,15.74
2018-05-29T09:07:32.428Z,16.85
2018-05-29T09:10:00.741Z,16.30
2018-05-29T09:12:29.066Z,16.12
2018-05-29T09:14:57.416Z,15.64
2018-05-29T09:17:25.738Z,16.30
2018-05-29T09:19:54.109Z,15.48
2018-05-29T09:22:22.434Z,16.94
2018-05-29T09:27:18.617Z,16.33
2018-05-29T09:29:47.049Z,17.00
2018-05-29T09:32:15.314Z,16.98
2018-05-29T09:34:43.655Z,17.10
2018-05-29T09:37:11.978Z,16.00
2018-05-29T09:39:40.322Z,17.35
2018-05-29T09:42:08.649Z,16.22
2018-05-29T09:44:37.054Z,14.36
2018-05-29T09:47:05.366Z,14.74
2018-05-29T09:49:33.715Z,15.42
2018-05-29T09:52:01.269Z,15.66
2018-05-29T09:54:29.672Z,15.44
2018-05-29T09:56:57.961Z,14.44
2018-05-29T09:59:26.305Z,14.54
2018-05-29T10:01:54.634Z,14.92
2018-05-29T10:04:22.977Z,14.54
2018-05-29T10:06:51.307Z,13.90
2018-05-29T10:09:19.649Z,12.58
2018-05-29T10:11:47.982Z,13.70
2018-05-29T10:14:16.324Z,13.56
2018-05-29T10:16:44.638Z,12.40
2018-05-29T10:19:12.983Z,12.20
2018-05-29T10:21:41.309Z,12.36
2018-05-29T10:24:09.645Z,11.90
2018-05-29T10:26:37.973Z,12.82
2018-05-29T10:29:06.321Z,12.90
2018-05-29T10:31:34.646Z,13.08
2018-05-29T10:34:02.990Z,13.16
2018-05-29T10:36:31.309Z,12.78
2018-05-29T10:38:59.654Z,12.50
2018-05-29T10:41:27.977Z,13.24
2018-05-29T10:43:56.319Z,13.30
2018-05-29T10:46:24.634Z,13.46
2018-05-29T10:48:52.944Z,13.00
2018-05-29T10:51:20.542Z,13.88
2018-05-29T10:53:48.876Z,14.14
2018-05-29T10:56:17.250Z,13.35
2018-05-29T10:58:45.577Z,12.96
2018-05-29T11:01:13.917Z,13.40
2018-05-29T11:03:42.224Z,14.45
2018-05-29T11:06:10.562Z,14.04
2018-05-29T11:08:38.878Z,13.94
2018-05-29T11:11:07.224Z,13.52
2018-05-29T11:13:35.547Z,13.13
2018-05-29T11:16:03.892Z,13.60
2018-05-29T11:18:32.206Z,12.70
2018-05-29T11:21:00.549Z,14.12
2018-05-29T11:23:28.867Z,14.04
2018-05-29T11:25:57.215Z,13.14
2018-05-29T11:28:25.529Z,12.92
2018-05-29T11:30:53.889Z,13.60
2018-05-29T11:33:22.208Z,14.68
2018-05-29T11:35:50.549Z,14.58
2018-05-29T11:38:18.881Z,13.00
2018-05-29T11:40:47.226Z,14.14
2018-05-29T11:43:15.546Z,14.32
2018-05-29T11:45:43.894Z,13.92
2018-05-29T11:48:12.218Z,13.54
2018-05-29T11:50:40.561Z,13.78
2018-05-29T11:53:08.877Z,13.34
2018-05-29T11:55:37.210Z,12.58
2018-05-29T11:58:05.544Z,15.08
2018-05-29T12:00:33.910Z,15.86
2018-05-29T12:03:02.230Z,15.08
2018-05-29T12:05:30.565Z,15.78
2018-05-29T12:07:58.880Z,15.24
2018-05-29T12:10:27.235Z,16.82
2018-05-29T12:12:55.562Z,17.50
2018-05-29T12:15:23.897Z,14.62
2018-05-29T12:17:52.213Z,12.14
2018-05-29T12:20:20.554Z,11.88
2018-05-29T12:22:48.889Z,12.22
2018-05-29T12:25:17.275Z,11.96
2018-05-29T12:27:45.590Z,13.32
2018-05-29T12:30:13.920Z,12.36
2018-05-29T12:32:42.262Z,11.88
2018-05-29T12:35:10.579Z,16.28
2018-05-29T12:37:38.918Z,19.90
2018-05-29T12:40:07.247Z,87.12
2018-05-29T12:42:34.803Z,16.54
2018-05-29T12:45:03.096Z,11.00
2018-05-29T12:47:31.411Z,11.88
2018-05-29T12:49:59.716Z,11.10
2018-05-29T12:52:28.040Z,11.88
2018-05-29T12:54:56.341Z,9.44
2018-05-29T12:57:24.681Z,10.00
2018-05-29T13:02:20.843Z,9.80
2018-05-29T13:04:49.142Z,9.96
2018-05-29T13:07:17.458Z,9.88
2018-05-29T13:09:45.754Z,10.46
2018-05-29T13:12:14.075Z,10.78
2018-05-29T13:14:42.370Z,11.56
2018-05-29T13:17:10.709Z,11.60
2018-05-29T13:19:39.002Z,11.00
2018-05-29T13:22:07.320Z,11.32
2018-05-29T13:24:35.616Z,12.38
2018-05-29T13:27:03.988Z,11.02
2018-05-29T13:29:31.482Z,11.76
2018-05-29T13:31:59.809Z,11.92
2018-05-29T13:34:28.108Z,11.60
2018-05-29T13:36:56.435Z,11.40
2018-05-29T13:39:24.735Z,10.52
2018-05-29T13:41:53.059Z,9.80
2018-05-29T13:44:21.363Z,9.74
2018-05-29T13:46:49.678Z,10.26
2018-05-29T13:49:17.989Z,14.36
2018-05-29T13:51:46.318Z,10.80
2018-05-29T13:54:14.621Z,12.40
2018-05-29T13:56:42.934Z,30.18
2018-05-29T13:59:11.235Z,27.16
2018-05-29T14:01:39.553Z,19.12
2018-05-29T14:04:07.851Z,13.68
2018-05-29T14:06:36.191Z,11.26
2018-05-29T14:09:05.344Z,11.96
2018-05-29T14:11:33.607Z,11.06
2018-05-29T14:14:01.159Z,10.08
2018-05-29T14:16:29.453Z,10.22
2018-05-29T14:18:57.766Z,10.30
2018-05-29T14:21:26.063Z,10.00
2018-05-29T14:23:54.379Z,9.54
2018-05-29T14:26:22.671Z,9.04
2018-05-29T14:28:50.991Z,15.64
2018-05-29T14:31:19.290Z,11.52
2018-05-29T14:33:47.611Z,11.65
2018-05-29T14:36:15.915Z,11.48
2018-05-29T14:38:44.238Z,11.50
2018-05-29T14:41:12.531Z,9.96
2018-05-29T14:43:40.854Z,9.94
2018-05-29T14:46:08.390Z,9.45
2018-05-29T14:48:36.712Z,10.00
2018-05-29T14:51:05.014Z,10.88
2018-05-29T14:53:33.330Z,12.92
2018-05-29T14:56:01.630Z,10.20
2018-05-29T14:58:29.179Z,9.80
2018-05-29T15:00:57.471Z,9.40
2018-05-29T15:03:25.786Z,9.62
2018-05-29T15:05:54.095Z,8.82
2018-05-29T15:08:22.404Z,9.06
2018-05-29T15:10:50.694Z,9.30
2018-05-29T15:13:19.008Z,10.42
2018-05-29T15:15:47.303Z,10.46
2018-05-29T15:18:15.631Z,10.34
2018-05-29T15:20:43.930Z,10.82
2018-05-29T15:23:12.256Z,10.88
2018-05-29T15:25:40.558Z,9.86
2018-05-29T15:28:08.880Z,9.68
2018-05-29T15:30:37.186Z,11.08
2018-05-29T15:33:05.503Z,10.10
2018-05-29T15:35:33.802Z,10.96
2018-05-29T15:38:03.293Z,10.30
2018-05-29T15:40:31.596Z,10.90
2018-05-29T15:42:59.910Z,10.62
2018-05-29T15:45:28.207Z,10.50
2018-05-29T15:47:56.499Z,10.68
2018-05-29T15:50:24.819Z,10.88
2018-05-29T15:52:53.124Z,10.32
2018-05-29T15:55:21.847Z,11.04
2018-05-29T15:57:50.142Z,10.78
2018-05-29T16:00:18.455Z,9.28
2018-05-29T16:02:46.752Z,9.62
2018-05-29T16:05:15.073Z,8.54
2018-05-29T16:07:43.370Z,8.88
2018-05-29T16:10:11.687Z,7.86
2018-05-29T16:12:39.983Z,8.78
2018-05-29T16:15:08.299Z,7.82
2018-05-29T16:17:36.591Z,8.02
2018-05-29T16:20:04.902Z,8.28
2018-05-29T16:22:33.195Z,8.60
2018-05-29T16:25:01.509Z,8.32
2018-05-29T16:27:29.802Z,9.82
2018-05-29T16:29:58.116Z,8.56
2018-05-29T16:32:26.411Z,8.16
2018-05-29T16:34:54.732Z,8.36
2018-05-29T16:37:23.023Z,9.28
2018-05-29T16:39:51.343Z,8.88
2018-05-29T16:42:19.639Z,8.26
2018-05-29T16:44:47.955Z,8.18
2018-05-29T16:47:16.247Z,8.04
2018-05-29T16:49:44.558Z,7.82
2018-05-29T16:52:12.852Z,7.46
2018-05-29T16:54:41.175Z,7.42
2018-05-29T16:57:09.462Z,7.60
2018-05-29T16:59:37.779Z,7.58
2018-05-29T17:02:06.072Z,6.54
2018-05-29T17:04:34.382Z,7.18
2018-05-29T17:07:02.671Z,6.50
2018-05-29T17:09:30.983Z,7.44
2018-05-29T17:11:59.278Z,6.76
2018-05-29T17:14:27.590Z,7.00
2018-05-29T17:16:55.882Z,6.74
2018-05-29T17:19:24.196Z,7.40
2018-05-29T17:21:52.506Z,6.90
2018-05-29T17:24:20.828Z,7.30
2018-05-29T17:26:49.115Z,7.24
2018-05-29T17:29:17.411Z,7.08
2018-05-29T17:31:45.726Z,6.96
2018-05-29T17:34:14.019Z,7.10
2018-05-29T17:36:42.330Z,7.50
2018-05-29T17:39:10.618Z,6.88
2018-05-29T17:41:38.935Z,6.92
2018-05-29T17:44:07.231Z,7.08
2018-05-29T17:46:35.543Z,8.00
2018-05-29T17:49:03.842Z,6.58
2018-05-29T17:51:32.167Z,6.82
2018-05-29T17:54:00.456Z,7.16
2018-05-29T17:56:28.772Z,7.08
2018-05-29T17:58:57.064Z,6.60
2018-05-29T18:01:25.378Z,6.86
2018-05-29T18:03:53.662Z,6.70
2018-05-29T18:06:21.979Z,6.40
2018-05-29T18:08:50.280Z,7.38
2018-05-29T18:11:18.632Z,6.82
2018-05-29T18:13:46.922Z,6.64
2018-05-29T18:16:15.231Z,7.48
2018-05-29T18:18:43.520Z,6.68
2018-05-29T18:21:11.842Z,6.80
2018-05-29T18:23:40.139Z,7.22
2018-05-29T18:26:08.462Z,7.08
2018-05-29T18:28:36.758Z,6.82
2018-05-29T18:31:05.083Z,8.08
2018-05-29T18:33:33.385Z,7.40
2018-05-29T18:36:01.716Z,8.48
2018-05-29T18:38:29.262Z,7.80
2018-05-29T18:40:57.579Z,7.80
2018-05-29T18:43:25.884Z,7.44
2018-05-29T18:45:54.206Z,7.76
2018-05-29T18:48:22.519Z,8.14
2018-05-29T18:50:50.839Z,7.54
2018-05-29T18:53:19.130Z,7.84
2018-05-29T18:55:47.438Z,8.56
2018-05-29T18:58:15.743Z,8.56
2018-05-29T19:00:44.070Z,8.68
2018-05-29T19:03:12.375Z,11.84
2018-05-29T19:05:40.671Z,8.50
2018-05-29T19:08:08.990Z,8.50
2018-05-29T19:10:37.279Z,7.56
2018-05-29T19:13:05.591Z,7.36
2018-05-29T19:15:33.896Z,16.88
2018-05-29T19:18:02.211Z,7.46
2018-05-29T19:20:30.515Z,6.02
2018-05-29T19:22:58.899Z,5.58
2018-05-29T19:25:27.144Z,5.70
2018-05-29T19:27:55.463Z,5.06
2018-05-29T19:30:23.761Z,5.70
2018-05-29T19:32:52.079Z,5.56
2018-05-29T19:35:21.132Z,5.38
2018-05-29T19:37:49.411Z,4.96
2018-05-29T19:40:17.705Z,5.38
2018-05-29T19:42:46.017Z,5.30
2018-05-29T19:45:14.314Z,5.24
2018-05-29T19:47:41.879Z,5.56
2018-05-29T19:50:10.204Z,5.82
2018-05-29T19:52:38.514Z,5.02
2018-05-29T19:55:06.819Z,5.18
2018-05-29T19:57:34.382Z,5.42
2018-05-29T20:00:02.740Z,5.30
2018-05-29T20:02:31.062Z,5.08
2018-05-29T20:04:59.373Z,5.12
2018-05-29T20:07:27.694Z,5.30
2018-05-29T20:09:56.003Z,4.94
2018-05-29T20:12:24.318Z,4.90
2018-05-29T20:14:52.625Z,5.40
2018-05-29T20:17:30.791Z,5.38
2018-05-29T20:19:59.145Z,5.40
2018-05-29T20:22:27.427Z,4.60
2018-05-29T20:24:55.722Z,5.68
2018-05-29T20:27:24.039Z,6.72
2018-05-29T20:29:52.338Z,5.46
2018-05-29T20:32:20.647Z,7.46
2018-05-29T20:34:48.942Z,6.10
2018-05-29T20:37:17.271Z,7.38
2018-05-29T20:39:45.567Z,6.44
2018-05-29T20:42:13.861Z,5.72
2018-05-29T20:44:42.659Z,5.76
2018-05-29T20:47:10.948Z,6.06
2018-05-29T20:49:39.258Z,5.94
2018-05-29T20:52:07.551Z,6.28
2018-05-29T20:54:35.106Z,6.20
2018-05-29T20:57:03.394Z,6.40
2018-05-29T20:59:31.711Z,5.60
2018-05-29T21:02:00.002Z,6.04
2018-05-29T21:04:28.307Z,5.98
2018-05-29T21:06:56.621Z,6.50
2018-05-29T21:09:24.910Z,8.70
2018-05-29T21:11:53.194Z,6.90
2018-05-29T21:14:21.528Z,6.72
2018-05-29T21:16:49.823Z,10.60
2018-05-29T21:19:18.127Z,10.68
2018-05-29T21:21:46.451Z,6.64
2018-05-29T21:24:14.747Z,11.02
2018-05-29T21:26:43.067Z,10.14
2018-05-29T21:29:11.355Z,7.74
2018-05-29T21:31:39.669Z,7.16
2018-05-29T21:34:07.960Z,6.90
2018-05-29T21:36:36.283Z,6.72
2018-05-29T21:39:05.314Z,7.98
2018-05-29T21:41:33.635Z,8.02
2018-05-29T21:44:01.925Z,7.44
2018-05-29T21:46:30.267Z,7.62
2018-05-29T21:48:58.539Z,7.60
2018-05-29T21:51:26.866Z,7.10
2018-05-29T21:53:55.162Z,7.22
2018-05-29T21:56:22.686Z,6.02
2018-05-29T21:58:50.995Z,6.32
2018-05-29T22:01:19.278Z,6.56
2018-05-29T22:03:47.599Z,7.52
2018-05-29T22:06:15.892Z,7.14
2018-05-29T22:08:44.202Z,6.60
2018-05-29T22:11:12.495Z,6.78
2018-05-29T22:13:40.799Z,7.12
2018-05-29T22:16:09.096Z,6.76
2018-05-29T22:18:37.410Z,6.12
2018-05-29T22:21:05.707Z,6.52
2018-05-29T22:23:34.021Z,6.80
2018-05-29T22:26:02.322Z,6.34
2018-05-29T22:28:30.643Z,6.92
2018-05-29T22:30:58.940Z,7.50
2018-05-29T22:33:27.231Z,6.38
2018-05-29T22:35:55.543Z,7.04
2018-05-29T22:38:23.840Z,6.82
2018-05-29T22:40:52.159Z,6.60
2018-05-29T22:43:20.450Z,6.56
2018-05-29T22:45:48.761Z,5.80
2018-05-29T22:48:17.059Z,6.72
2018-05-29T22:50:45.371Z,6.14
2018-05-29T22:53:13.672Z,6.04
2018-05-29T22:55:41.984Z,5.90
2018-05-29T22:58:10.276Z,6.40
2018-05-29T23:00:38.596Z,6.04
2018-05-29T23:03:06.887Z,6.34
2018-05-29T23:05:34.496Z,6.54
2018-05-29T23:08:02.752Z,6.20
2018-05-29T23:10:31.045Z,6.88
2018-05-29T23:12:59.358Z,5.90
2018-05-29T23:15:27.643Z,7.28
2018-05-29T23:17:55.960Z,6.80
2018-05-29T23:20:24.250Z,6.64
2018-05-29T23:22:52.558Z,7.34
2018-05-29T23:25:20.852Z,6.56
2018-05-29T23:27:49.170Z,7.22
2018-05-29T23:30:17.465Z,7.56
2018-05-29T23:32:45.786Z,17.48
2018-05-29T23:35:14.092Z,13.80
2018-05-29T23:37:42.408Z,13.36
2018-05-29T23:40:10.712Z,19.24
2018-05-29T23:42:39.052Z,12.04
2018-05-29T23:45:07.351Z,11.68
2018-05-29T23:47:35.642Z,8.70
2018-05-29T23:50:03.966Z,9.02
2018-05-29T23:52:32.272Z,7.46
2018-05-29T23:55:00.588Z,7.02
2018-05-29T23:57:28.110Z,7.74
2018-05-29T23:59:56.444Z,7.22
